sensor_id;sensor_type;location;lat;lon;timestamp;P1;durP1;ratioP1;P2;durP2;ratioP2
10637;SDS011;47007;49.252;8.904;2023-05-13T00:00:53;1.88;;;1.77;;
10637;SDS011;47007;49.252;8.904;2023-05-13T00:01:42;2.00;;;1.90;;
10637;SDS011;47007;49.252;8.904;2023-05-13T00:02:34;1.98;;;1.73;;
10637;SDS011;47007;49.252;8.904;2023-05-13T00:03:24;2.15;;;1.70;;
10637;SDS011;47007;49.252;8.904;2023-05-13T00:04:48;2.05;;;1.95;;
10637;SDS011;47007;49.252;8.904;2023-05-13T00:05:39;2.25;;;2.15;;
10637;SDS011;47007;49.252;8.904;2023-05-13T00:06:38;2.38;;;2.20;;
10637;SDS011;47007;49.252;8.904;2023-05-13T00:07:48;1.80;;;1.70;;
10637;SDS011;47007;49.252;8.904;2023-05-13T00:08:53;2.40;;;2.22;;
10637;SDS011;47007;49.252;8.904;2023-05-13T00:09:39;1.95;;;1.85;;
10637;SDS011;47007;49.252;8.904;2023-05-13T00:10:36;2.55;;;1.95;;
10637;SDS011;47007;49.252;8.904;2023-05-13T00:11:26;2.83;;;2.10;;
10637;SDS011;47007;49.252;8.904;2023-05-13T00:12:23;1.88;;;1.77;;
10637;SDS011;47007;49.252;8.904;2023-05-13T00:13:08;2.38;;;2.17;;
10637;SDS011;47007;49.252;8.904;2023-05-13T00:13:59;2.22;;;2.13;;
10637;SDS011;47007;49.252;8.904;2023-05-13T00:14:54;3.25;;;2.05;;
10637;SDS011;47007;49.252;8.904;2023-05-13T00:15:45;2.25;;;2.08;;
10637;SDS011;47007;49.252;8.904;2023-05-13T00:16:32;3.47;;;1.88;;
10637;SDS011;47007;49.252;8.904;2023-05-13T00:17:35;4.13;;;2.60;;
10637;SDS011;47007;49.252;8.904;2023-05-13T00:18:20;2.60;;;2.40;;
10637;SDS011;47007;49.252;8.904;2023-05-13T00:19:14;2.20;;;1.98;;
10637;SDS011;47007;49.252;8.904;2023-05-13T00:20:02;2.75;;;2.10;;
10637;SDS011;47007;49.252;8.904;2023-05-13T00:20:48;1.98;;;1.75;;
10637;SDS011;47007;49.252;8.904;2023-05-13T00:21:33;2.55;;;1.60;;
10637;SDS011;47007;49.252;8.904;2023-05-13T00:22:19;1.90;;;1.80;;
10637;SDS011;47007;49.252;8.904;2023-05-13T00:23:05;2.47;;;2.20;;
10637;SDS011;47007;49.252;8.904;2023-05-13T00:23:50;2.10;;;1.90;;
10637;SDS011;47007;49.252;8.904;2023-05-13T00:24:39;1.75;;;1.65;;
10637;SDS011;47007;49.252;8.904;2023-05-13T00:25:42;1.80;;;1.70;;
10637;SDS011;47007;49.252;8.904;2023-05-13T00:27:01;2.80;;;2.08;;
10637;SDS011;47007;49.252;8.904;2023-05-13T00:27:53;1.90;;;1.80;;
10637;SDS011;47007;49.252;8.904;2023-05-13T00:28:43;1.90;;;1.80;;
10637;SDS011;47007;49.252;8.904;2023-05-13T00:29:54;3.60;;;1.90;;
10637;SDS011;47007;49.252;8.904;2023-05-13T00:30:51;2.78;;;1.73;;
10637;SDS011;47007;49.252;8.904;2023-05-13T00:31:39;2.25;;;1.65;;
10637;SDS011;47007;49.252;8.904;2023-05-13T00:32:22;2.05;;;1.95;;
10637;SDS011;47007;49.252;8.904;2023-05-13T00:33:15;2.70;;;1.90;;
10637;SDS011;47007;49.252;8.904;2023-05-13T00:33:57;2.08;;;1.98;;
10637;SDS011;47007;49.252;8.904;2023-05-13T00:35:07;2.33;;;2.05;;
10637;SDS011;47007;49.252;8.904;2023-05-13T00:35:52;2.58;;;2.38;;
10637;SDS011;47007;49.252;8.904;2023-05-13T00:36:47;2.58;;;2.38;;
10637;SDS011;47007;49.252;8.904;2023-05-13T00:37:29;2.35;;;2.20;;
10637;SDS011;47007;49.252;8.904;2023-05-13T00:38:17;3.05;;;2.38;;
10637;SDS011;47007;49.252;8.904;2023-05-13T00:39:05;1.85;;;1.73;;
10637;SDS011;47007;49.252;8.904;2023-05-13T00:39:59;1.70;;;1.60;;
10637;SDS011;47007;49.252;8.904;2023-05-13T00:41:07;2.30;;;2.10;;
10637;SDS011;47007;49.252;8.904;2023-05-13T00:41:55;2.30;;;2.10;;
10637;SDS011;47007;49.252;8.904;2023-05-13T00:43:18;2.10;;;2.00;;
10637;SDS011;47007;49.252;8.904;2023-05-13T00:44:03;3.80;;;2.25;;
10637;SDS011;47007;49.252;8.904;2023-05-13T00:45:03;1.92;;;1.83;;
10637;SDS011;47007;49.252;8.904;2023-05-13T00:46:22;3.17;;;2.40;;
10637;SDS011;47007;49.252;8.904;2023-05-13T00:47:09;2.30;;;2.20;;
10637;SDS011;47007;49.252;8.904;2023-05-13T00:49:03;3.00;;;2.17;;
10637;SDS011;47007;49.252;8.904;2023-05-13T00:50:01;3.45;;;2.40;;
10637;SDS011;47007;49.252;8.904;2023-05-13T00:51:04;2.10;;;2.00;;
10637;SDS011;47007;49.252;8.904;2023-05-13T00:52:05;2.25;;;2.15;;
10637;SDS011;47007;49.252;8.904;2023-05-13T00:52:59;2.30;;;2.10;;
10637;SDS011;47007;49.252;8.904;2023-05-13T00:53:55;2.40;;;1.92;;
10637;SDS011;47007;49.252;8.904;2023-05-13T00:54:41;1.73;;;1.63;;
10637;SDS011;47007;49.252;8.904;2023-05-13T00:55:29;3.15;;;2.40;;
10637;SDS011;47007;49.252;8.904;2023-05-13T00:56:19;3.13;;;2.15;;
10637;SDS011;47007;49.252;8.904;2023-05-13T00:57:05;2.03;;;1.80;;
10637;SDS011;47007;49.252;8.904;2023-05-13T00:57:47;1.90;;;1.80;;
10637;SDS011;47007;49.252;8.904;2023-05-13T00:58:31;2.13;;;2.03;;
10637;SDS011;47007;49.252;8.904;2023-05-13T00:59:28;2.40;;;2.20;;
10637;SDS011;47007;49.252;8.904;2023-05-13T01:00:39;2.05;;;1.85;;
10637;SDS011;47007;49.252;8.904;2023-05-13T01:01:42;2.22;;;1.70;;
10637;SDS011;47007;49.252;8.904;2023-05-13T01:02:38;2.22;;;2.03;;
10637;SDS011;47007;49.252;8.904;2023-05-13T01:06:56;2.30;;;2.20;;
10637;SDS011;47007;49.252;8.904;2023-05-13T01:09:12;4.78;;;2.05;;
10637;SDS011;47007;49.252;8.904;2023-05-13T01:10:04;2.40;;;2.20;;
10637;SDS011;47007;49.252;8.904;2023-05-13T01:10:54;2.58;;;2.22;;
10637;SDS011;47007;49.252;8.904;2023-05-13T01:11:43;2.20;;;2.10;;
10637;SDS011;47007;49.252;8.904;2023-05-13T01:12:34;2.22;;;2.13;;
10637;SDS011;47007;49.252;8.904;2023-05-13T01:13:23;3.17;;;2.00;;
10637;SDS011;47007;49.252;8.904;2023-05-13T01:14:13;2.75;;;2.42;;
10637;SDS011;47007;49.252;8.904;2023-05-13T01:15:08;2.00;;;1.90;;
10637;SDS011;47007;49.252;8.904;2023-05-13T01:16:12;2.33;;;2.13;;
10637;SDS011;47007;49.252;8.904;2023-05-13T01:17:31;2.40;;;2.20;;
10637;SDS011;47007;49.252;8.904;2023-05-13T01:18:29;2.25;;;2.15;;
10637;SDS011;47007;49.252;8.904;2023-05-13T01:19:45;2.20;;;2.08;;
10637;SDS011;47007;49.252;8.904;2023-05-13T01:20:33;2.00;;;1.90;;
10637;SDS011;47007;49.252;8.904;2023-05-13T01:21:33;2.10;;;2.00;;
10637;SDS011;47007;49.252;8.904;2023-05-13T01:22:24;2.33;;;2.10;;
10637;SDS011;47007;49.252;8.904;2023-05-13T01:23:11;2.45;;;2.25;;
10637;SDS011;47007;49.252;8.904;2023-05-13T01:23:56;2.40;;;2.30;;
10637;SDS011;47007;49.252;8.904;2023-05-13T01:24:45;2.70;;;2.50;;
10637;SDS011;47007;49.252;8.904;2023-05-13T01:25:31;2.33;;;2.22;;
10637;SDS011;47007;49.252;8.904;2023-05-13T01:26:38;2.60;;;2.50;;
10637;SDS011;47007;49.252;8.904;2023-05-13T01:27:31;4.53;;;2.92;;
10637;SDS011;47007;49.252;8.904;2023-05-13T01:28:26;2.58;;;2.38;;
10637;SDS011;47007;49.252;8.904;2023-05-13T01:29:19;2.80;;;2.60;;
10637;SDS011;47007;49.252;8.904;2023-05-13T01:30:09;2.90;;;2.70;;
10637;SDS011;47007;49.252;8.904;2023-05-13T01:30:56;3.00;;;2.60;;
10637;SDS011;47007;49.252;8.904;2023-05-13T01:31:42;3.05;;;2.85;;
10637;SDS011;47007;49.252;8.904;2023-05-13T01:32:29;3.22;;;3.03;;
10637;SDS011;47007;49.252;8.904;2023-05-13T01:33:17;2.72;;;2.58;;
10637;SDS011;47007;49.252;8.904;2023-05-13T01:34:18;5.15;;;2.95;;
10637;SDS011;47007;49.252;8.904;2023-05-13T01:35:08;3.20;;;3.00;;
10637;SDS011;47007;49.252;8.904;2023-05-13T01:36:03;2.78;;;2.55;;
10637;SDS011;47007;49.252;8.904;2023-05-13T01:36:56;2.63;;;2.30;;
10637;SDS011;47007;49.252;8.904;2023-05-13T01:37:51;3.03;;;2.83;;
10637;SDS011;47007;49.252;8.904;2023-05-13T01:38:48;4.22;;;2.50;;
10637;SDS011;47007;49.252;8.904;2023-05-13T01:39:45;2.70;;;2.58;;
10637;SDS011;47007;49.252;8.904;2023-05-13T01:40:36;2.97;;;2.78;;
10637;SDS011;47007;49.252;8.904;2023-05-13T01:41:35;2.90;;;2.70;;
10637;SDS011;47007;49.252;8.904;2023-05-13T01:42:28;2.53;;;2.33;;
10637;SDS011;47007;49.252;8.904;2023-05-13T01:43:20;2.70;;;2.50;;
10637;SDS011;47007;49.252;8.904;2023-05-13T01:44:21;2.53;;;2.33;;
10637;SDS011;47007;49.252;8.904;2023-05-13T01:45:08;2.95;;;2.65;;
10637;SDS011;47007;49.252;8.904;2023-05-13T01:46:01;2.75;;;2.65;;
10637;SDS011;47007;49.252;8.904;2023-05-13T01:46:57;2.38;;;2.17;;
10637;SDS011;47007;49.252;8.904;2023-05-13T01:47:48;2.92;;;2.65;;
10637;SDS011;47007;49.252;8.904;2023-05-13T01:48:39;2.92;;;2.72;;
10637;SDS011;47007;49.252;8.904;2023-05-13T01:49:24;3.40;;;3.08;;
10637;SDS011;47007;49.252;8.904;2023-05-13T01:50:06;2.83;;;2.65;;
10637;SDS011;47007;49.252;8.904;2023-05-13T01:50:49;2.80;;;2.65;;
10637;SDS011;47007;49.252;8.904;2023-05-13T01:51:31;2.38;;;2.28;;
10637;SDS011;47007;49.252;8.904;2023-05-13T01:52:12;3.20;;;3.00;;
10637;SDS011;47007;49.252;8.904;2023-05-13T01:52:54;2.88;;;2.67;;
10637;SDS011;47007;49.252;8.904;2023-05-13T01:53:37;3.72;;;2.88;;
10637;SDS011;47007;49.252;8.904;2023-05-13T01:54:19;3.95;;;3.55;;
10637;SDS011;47007;49.252;8.904;2023-05-13T01:55:08;3.20;;;3.00;;
10637;SDS011;47007;49.252;8.904;2023-05-13T01:55:53;3.50;;;3.30;;
10637;SDS011;47007;49.252;8.904;2023-05-13T01:56:35;3.45;;;3.15;;
10637;SDS011;47007;49.252;8.904;2023-05-13T01:57:16;3.03;;;2.72;;
10637;SDS011;47007;49.252;8.904;2023-05-13T01:57:58;3.15;;;2.95;;
10637;SDS011;47007;49.252;8.904;2023-05-13T01:58:40;2.75;;;2.47;;
10637;SDS011;47007;49.252;8.904;2023-05-13T01:59:22;3.33;;;3.08;;
10637;SDS011;47007;49.252;8.904;2023-05-13T02:00:03;2.70;;;2.60;;
10637;SDS011;47007;49.252;8.904;2023-05-13T02:00:54;2.67;;;2.58;;
10637;SDS011;47007;49.252;8.904;2023-05-13T02:01:40;2.70;;;2.50;;
10637;SDS011;47007;49.252;8.904;2023-05-13T02:02:22;3.28;;;3.08;;
10637;SDS011;47007;49.252;8.904;2023-05-13T02:03:04;3.35;;;3.03;;
10637;SDS011;47007;49.252;8.904;2023-05-13T02:03:49;2.85;;;2.65;;
10637;SDS011;47007;49.252;8.904;2023-05-13T02:04:33;3.10;;;2.90;;
10637;SDS011;47007;49.252;8.904;2023-05-13T02:05:15;3.15;;;2.95;;
10637;SDS011;47007;49.252;8.904;2023-05-13T02:05:58;3.58;;;2.60;;
10637;SDS011;47007;49.252;8.904;2023-05-13T02:06:39;3.00;;;2.80;;
10637;SDS011;47007;49.252;8.904;2023-05-13T02:07:23;2.80;;;2.60;;
10637;SDS011;47007;49.252;8.904;2023-05-13T02:08:05;3.38;;;3.00;;
10637;SDS011;47007;49.252;8.904;2023-05-13T02:08:47;2.67;;;2.47;;
10637;SDS011;47007;49.252;8.904;2023-05-13T02:09:28;2.60;;;2.40;;
10637;SDS011;47007;49.252;8.904;2023-05-13T02:10:11;2.90;;;2.45;;
10637;SDS011;47007;49.252;8.904;2023-05-13T02:10:56;2.97;;;2.78;;
10637;SDS011;47007;49.252;8.904;2023-05-13T02:11:38;2.83;;;2.63;;
10637;SDS011;47007;49.252;8.904;2023-05-13T02:12:26;3.33;;;2.38;;
10637;SDS011;47007;49.252;8.904;2023-05-13T02:13:09;2.40;;;2.30;;
10637;SDS011;47007;49.252;8.904;2023-05-13T02:13:52;2.88;;;2.75;;
10637;SDS011;47007;49.252;8.904;2023-05-13T02:14:33;2.80;;;2.60;;
10637;SDS011;47007;49.252;8.904;2023-05-13T02:15:16;2.63;;;2.42;;
10637;SDS011;47007;49.252;8.904;2023-05-13T02:16:15;2.63;;;2.53;;
10637;SDS011;47007;49.252;8.904;2023-05-13T02:17:02;2.42;;;2.33;;
10637;SDS011;47007;49.252;8.904;2023-05-13T02:17:45;2.40;;;2.20;;
10637;SDS011;47007;49.252;8.904;2023-05-13T02:18:30;2.63;;;2.53;;
10637;SDS011;47007;49.252;8.904;2023-05-13T02:19:12;2.72;;;2.53;;
10637;SDS011;47007;49.252;8.904;2023-05-13T02:19:55;2.72;;;2.53;;
10637;SDS011;47007;49.252;8.904;2023-05-13T02:20:37;2.47;;;2.38;;
10637;SDS011;47007;49.252;8.904;2023-05-13T02:21:18;2.80;;;2.65;;
10637;SDS011;47007;49.252;8.904;2023-05-13T02:22:00;2.70;;;2.50;;
10637;SDS011;47007;49.252;8.904;2023-05-13T02:22:42;2.80;;;2.60;;
10637;SDS011;47007;49.252;8.904;2023-05-13T02:23:24;2.72;;;2.53;;
10637;SDS011;47007;49.252;8.904;2023-05-13T02:24:08;2.60;;;2.40;;
10637;SDS011;47007;49.252;8.904;2023-05-13T02:24:53;2.42;;;2.22;;
10637;SDS011;47007;49.252;8.904;2023-05-13T02:25:34;2.55;;;2.35;;
10637;SDS011;47007;49.252;8.904;2023-05-13T02:26:16;2.33;;;2.13;;
10637;SDS011;47007;49.252;8.904;2023-05-13T02:26:58;2.38;;;2.28;;
10637;SDS011;47007;49.252;8.904;2023-05-13T02:27:40;2.33;;;2.20;;
10637;SDS011;47007;49.252;8.904;2023-05-13T02:28:22;2.47;;;2.28;;
10637;SDS011;47007;49.252;8.904;2023-05-13T02:29:04;2.35;;;2.25;;
10637;SDS011;47007;49.252;8.904;2023-05-13T02:29:46;2.72;;;2.38;;
10637;SDS011;47007;49.252;8.904;2023-05-13T02:30:33;3.72;;;2.30;;
10637;SDS011;47007;49.252;8.904;2023-05-13T02:31:15;2.58;;;2.38;;
10637;SDS011;47007;49.252;8.904;2023-05-13T02:31:59;2.60;;;2.40;;
10637;SDS011;47007;49.252;8.904;2023-05-13T02:32:41;2.30;;;2.15;;
10637;SDS011;47007;49.252;8.904;2023-05-13T02:33:24;3.00;;;2.30;;
10637;SDS011;47007;49.252;8.904;2023-05-13T02:34:07;2.40;;;2.30;;
10637;SDS011;47007;49.252;8.904;2023-05-13T02:34:54;2.58;;;2.40;;
10637;SDS011;47007;49.252;8.904;2023-05-13T02:35:39;2.63;;;2.40;;
10637;SDS011;47007;49.252;8.904;2023-05-13T02:36:24;2.60;;;2.40;;
10637;SDS011;47007;49.252;8.904;2023-05-13T02:37:06;2.05;;;1.95;;
10637;SDS011;47007;49.252;8.904;2023-05-13T02:37:56;2.35;;;2.25;;
10637;SDS011;47007;49.252;8.904;2023-05-13T02:38:38;2.55;;;2.35;;
10637;SDS011;47007;49.252;8.904;2023-05-13T02:39:21;2.50;;;2.40;;
10637;SDS011;47007;49.252;8.904;2023-05-13T02:40:04;2.60;;;2.22;;
10637;SDS011;47007;49.252;8.904;2023-05-13T02:40:51;2.55;;;2.35;;
10637;SDS011;47007;49.252;8.904;2023-05-13T02:41:36;2.25;;;2.15;;
10637;SDS011;47007;49.252;8.904;2023-05-13T02:42:20;2.42;;;2.22;;
10637;SDS011;47007;49.252;8.904;2023-05-13T02:43:04;2.60;;;2.50;;
10637;SDS011;47007;49.252;8.904;2023-05-13T02:44:01;2.42;;;2.33;;
10637;SDS011;47007;49.252;8.904;2023-05-13T02:44:43;2.60;;;2.40;;
10637;SDS011;47007;49.252;8.904;2023-05-13T02:45:27;2.88;;;2.75;;
10637;SDS011;47007;49.252;8.904;2023-05-13T02:46:10;2.92;;;2.72;;
10637;SDS011;47007;49.252;8.904;2023-05-13T02:46:52;3.33;;;3.13;;
10637;SDS011;47007;49.252;8.904;2023-05-13T02:47:34;3.25;;;2.80;;
10637;SDS011;47007;49.252;8.904;2023-05-13T02:48:18;2.80;;;2.67;;
10637;SDS011;47007;49.252;8.904;2023-05-13T02:48:59;3.13;;;2.90;;
10637;SDS011;47007;49.252;8.904;2023-05-13T02:49:48;3.17;;;2.88;;
10637;SDS011;47007;49.252;8.904;2023-05-13T02:50:30;2.80;;;2.60;;
10637;SDS011;47007;49.252;8.904;2023-05-13T02:51:11;2.53;;;2.42;;
10637;SDS011;47007;49.252;8.904;2023-05-13T02:51:55;2.97;;;2.20;;
10637;SDS011;47007;49.252;8.904;2023-05-13T02:52:44;2.72;;;2.53;;
10637;SDS011;47007;49.252;8.904;2023-05-13T02:53:26;2.40;;;2.30;;
10637;SDS011;47007;49.252;8.904;2023-05-13T02:54:13;3.33;;;2.70;;
10637;SDS011;47007;49.252;8.904;2023-05-13T02:54:55;2.50;;;2.40;;
10637;SDS011;47007;49.252;8.904;2023-05-13T02:55:38;3.33;;;2.83;;
10637;SDS011;47007;49.252;8.904;2023-05-13T02:56:25;2.75;;;2.63;;
10637;SDS011;47007;49.252;8.904;2023-05-13T02:57:07;3.00;;;2.80;;
10637;SDS011;47007;49.252;8.904;2023-05-13T02:57:52;3.00;;;2.80;;
10637;SDS011;47007;49.252;8.904;2023-05-13T02:58:40;3.00;;;2.70;;
10637;SDS011;47007;49.252;8.904;2023-05-13T02:59:24;2.30;;;2.20;;
10637;SDS011;47007;49.252;8.904;2023-05-13T03:00:06;4.10;;;2.45;;
10637;SDS011;47007;49.252;8.904;2023-05-13T03:00:49;3.00;;;2.70;;
10637;SDS011;47007;49.252;8.904;2023-05-13T03:01:31;2.35;;;2.15;;
10637;SDS011;47007;49.252;8.904;2023-05-13T03:02:12;2.60;;;2.40;;
10637;SDS011;47007;49.252;8.904;2023-05-13T03:02:54;2.90;;;2.70;;
10637;SDS011;47007;49.252;8.904;2023-05-13T03:03:36;2.50;;;2.40;;
10637;SDS011;47007;49.252;8.904;2023-05-13T03:04:19;2.60;;;2.50;;
10637;SDS011;47007;49.252;8.904;2023-05-13T03:05:00;3.70;;;2.40;;
10637;SDS011;47007;49.252;8.904;2023-05-13T03:05:42;2.40;;;2.20;;
10637;SDS011;47007;49.252;8.904;2023-05-13T03:06:24;2.63;;;2.42;;
10637;SDS011;47007;49.252;8.904;2023-05-13T03:07:05;2.30;;;2.20;;
10637;SDS011;47007;49.252;8.904;2023-05-13T03:07:47;2.60;;;2.50;;
10637;SDS011;47007;49.252;8.904;2023-05-13T03:08:29;2.70;;;2.50;;
10637;SDS011;47007;49.252;8.904;2023-05-13T03:09:11;3.08;;;2.05;;
10637;SDS011;47007;49.252;8.904;2023-05-13T03:09:53;2.20;;;2.10;;
10637;SDS011;47007;49.252;8.904;2023-05-13T03:10:36;2.20;;;2.10;;
10637;SDS011;47007;49.252;8.904;2023-05-13T03:11:38;2.03;;;1.92;;
10637;SDS011;47007;49.252;8.904;2023-05-13T03:12:30;2.40;;;2.20;;
10637;SDS011;47007;49.252;8.904;2023-05-13T03:13:16;2.42;;;2.22;;
10637;SDS011;47007;49.252;8.904;2023-05-13T03:14:00;3.90;;;2.20;;
10637;SDS011;47007;49.252;8.904;2023-05-13T03:15:05;2.30;;;2.10;;
10637;SDS011;47007;49.252;8.904;2023-05-13T03:15:53;2.47;;;2.20;;
10637;SDS011;47007;49.252;8.904;2023-05-13T03:16:55;2.53;;;2.33;;
10637;SDS011;47007;49.252;8.904;2023-05-13T03:17:49;2.83;;;2.28;;
10637;SDS011;47007;49.252;8.904;2023-05-13T03:18:43;2.25;;;2.15;;
10637;SDS011;47007;49.252;8.904;2023-05-13T03:19:39;2.47;;;2.28;;
10637;SDS011;47007;49.252;8.904;2023-05-13T03:20:21;2.42;;;2.20;;
10637;SDS011;47007;49.252;8.904;2023-05-13T03:21:26;2.45;;;2.28;;
10637;SDS011;47007;49.252;8.904;2023-05-13T03:22:15;3.60;;;2.28;;
10637;SDS011;47007;49.252;8.904;2023-05-13T03:23:06;2.63;;;2.17;;
10637;SDS011;47007;49.252;8.904;2023-05-13T03:24:10;2.60;;;2.38;;
10637;SDS011;47007;49.252;8.904;2023-05-13T03:24:53;2.75;;;2.20;;
10637;SDS011;47007;49.252;8.904;2023-05-13T03:25:52;2.45;;;2.33;;
10637;SDS011;47007;49.252;8.904;2023-05-13T03:26:38;2.30;;;2.20;;
10637;SDS011;47007;49.252;8.904;2023-05-13T03:27:20;2.20;;;2.10;;
10637;SDS011;47007;49.252;8.904;2023-05-13T03:28:07;4.28;;;2.03;;
10637;SDS011;47007;49.252;8.904;2023-05-13T03:28:53;2.30;;;2.13;;
10637;SDS011;47007;49.252;8.904;2023-05-13T03:29:43;2.72;;;2.40;;
10637;SDS011;47007;49.252;8.904;2023-05-13T03:30:38;2.58;;;2.38;;
10637;SDS011;47007;49.252;8.904;2023-05-13T03:31:32;3.28;;;2.22;;
10637;SDS011;47007;49.252;8.904;2023-05-13T03:32:26;2.13;;;2.00;;
10637;SDS011;47007;49.252;8.904;2023-05-13T03:33:19;2.95;;;2.65;;
10637;SDS011;47007;49.252;8.904;2023-05-13T03:34:13;2.75;;;2.60;;
10637;SDS011;47007;49.252;8.904;2023-05-13T03:35:13;2.80;;;2.40;;
10637;SDS011;47007;49.252;8.904;2023-05-13T03:35:57;2.80;;;2.60;;
10637;SDS011;47007;49.252;8.904;2023-05-13T03:36:50;2.70;;;2.50;;
10637;SDS011;47007;49.252;8.904;2023-05-13T03:37:40;2.70;;;2.50;;
10637;SDS011;47007;49.252;8.904;2023-05-13T03:38:30;2.65;;;2.45;;
10637;SDS011;47007;49.252;8.904;2023-05-13T03:39:12;2.30;;;2.20;;
10637;SDS011;47007;49.252;8.904;2023-05-13T03:39:57;2.80;;;2.60;;
10637;SDS011;47007;49.252;8.904;2023-05-13T03:40:49;2.65;;;2.30;;
10637;SDS011;47007;49.252;8.904;2023-05-13T03:41:39;3.80;;;3.03;;
10637;SDS011;47007;49.252;8.904;2023-05-13T03:42:33;2.78;;;2.58;;
10637;SDS011;47007;49.252;8.904;2023-05-13T03:43:19;3.38;;;2.53;;
10637;SDS011;47007;49.252;8.904;2023-05-13T03:44:09;2.25;;;2.15;;
10637;SDS011;47007;49.252;8.904;2023-05-13T03:45:04;3.08;;;2.58;;
10637;SDS011;47007;49.252;8.904;2023-05-13T03:45:53;2.78;;;2.58;;
10637;SDS011;47007;49.252;8.904;2023-05-13T03:46:37;2.42;;;2.33;;
10637;SDS011;47007;49.252;8.904;2023-05-13T03:47:20;3.03;;;2.72;;
10637;SDS011;47007;49.252;8.904;2023-05-13T03:48:02;2.75;;;2.55;;
10637;SDS011;47007;49.252;8.904;2023-05-13T03:48:55;3.58;;;2.35;;
10637;SDS011;47007;49.252;8.904;2023-05-13T03:49:44;2.80;;;2.60;;
10637;SDS011;47007;49.252;8.904;2023-05-13T03:50:32;2.88;;;2.67;;
10637;SDS011;47007;49.252;8.904;2023-05-13T03:51:16;2.60;;;2.40;;
10637;SDS011;47007;49.252;8.904;2023-05-13T03:52:14;2.85;;;2.65;;
10637;SDS011;47007;49.252;8.904;2023-05-13T03:53:16;2.22;;;2.13;;
10637;SDS011;47007;49.252;8.904;2023-05-13T03:54:05;3.15;;;2.50;;
10637;SDS011;47007;49.252;8.904;2023-05-13T03:54:57;2.55;;;2.45;;
10637;SDS011;47007;49.252;8.904;2023-05-13T03:55:46;2.80;;;2.60;;
10637;SDS011;47007;49.252;8.904;2023-05-13T03:56:51;2.88;;;2.67;;
10637;SDS011;47007;49.252;8.904;2023-05-13T03:57:49;3.03;;;2.72;;
10637;SDS011;47007;49.252;8.904;2023-05-13T03:58:46;3.28;;;2.97;;
10637;SDS011;47007;49.252;8.904;2023-05-13T03:59:51;2.47;;;2.38;;
10637;SDS011;47007;49.252;8.904;2023-05-13T04:00:33;4.68;;;2.55;;
10637;SDS011;47007;49.252;8.904;2023-05-13T04:01:17;2.80;;;2.42;;
10637;SDS011;47007;49.252;8.904;2023-05-13T04:02:18;2.50;;;2.30;;
10637;SDS011;47007;49.252;8.904;2023-05-13T04:03:17;2.90;;;2.70;;
10637;SDS011;47007;49.252;8.904;2023-05-13T04:04:13;3.05;;;2.85;;
10637;SDS011;47007;49.252;8.904;2023-05-13T04:04:57;3.42;;;3.15;;
10637;SDS011;47007;49.252;8.904;2023-05-13T04:05:46;3.47;;;3.15;;
10637;SDS011;47007;49.252;8.904;2023-05-13T04:06:33;3.15;;;2.72;;
10637;SDS011;47007;49.252;8.904;2023-05-13T04:07:16;3.75;;;3.17;;
10637;SDS011;47007;49.252;8.904;2023-05-13T04:08:17;3.28;;;3.08;;
10637;SDS011;47007;49.252;8.904;2023-05-13T04:09:01;3.13;;;2.92;;
10637;SDS011;47007;49.252;8.904;2023-05-13T04:09:47;3.25;;;2.78;;
10637;SDS011;47007;49.252;8.904;2023-05-13T04:10:34;3.05;;;2.80;;
10637;SDS011;47007;49.252;8.904;2023-05-13T04:11:16;3.00;;;2.80;;
10637;SDS011;47007;49.252;8.904;2023-05-13T04:12:03;3.40;;;2.83;;
10637;SDS011;47007;49.252;8.904;2023-05-13T04:12:55;3.28;;;2.67;;
10637;SDS011;47007;49.252;8.904;2023-05-13T04:13:50;2.60;;;2.50;;
10637;SDS011;47007;49.252;8.904;2023-05-13T04:14:35;2.92;;;2.47;;
10637;SDS011;47007;49.252;8.904;2023-05-13T04:15:31;3.25;;;2.85;;
10637;SDS011;47007;49.252;8.904;2023-05-13T04:16:15;3.80;;;2.50;;
10637;SDS011;47007;49.252;8.904;2023-05-13T04:17:07;2.78;;;2.42;;
10637;SDS011;47007;49.252;8.904;2023-05-13T04:17:59;3.47;;;2.15;;
10637;SDS011;47007;49.252;8.904;2023-05-13T04:18:57;2.28;;;2.17;;
10637;SDS011;47007;49.252;8.904;2023-05-13T04:19:46;3.00;;;2.72;;
10637;SDS011;47007;49.252;8.904;2023-05-13T04:20:39;3.00;;;2.80;;
10637;SDS011;47007;49.252;8.904;2023-05-13T04:21:26;3.72;;;3.10;;
10637;SDS011;47007;49.252;8.904;2023-05-13T04:22:15;3.38;;;3.13;;
10637;SDS011;47007;49.252;8.904;2023-05-13T04:23:05;3.55;;;3.25;;
10637;SDS011;47007;49.252;8.904;2023-05-13T04:23:54;3.38;;;3.08;;
10637;SDS011;47007;49.252;8.904;2023-05-13T04:24:55;4.18;;;3.63;;
10637;SDS011;47007;49.252;8.904;2023-05-13T04:25:39;3.13;;;2.92;;
10637;SDS011;47007;49.252;8.904;2023-05-13T04:26:29;3.70;;;3.30;;
10637;SDS011;47007;49.252;8.904;2023-05-13T04:27:37;3.35;;;3.10;;
10637;SDS011;47007;49.252;8.904;2023-05-13T04:28:27;3.42;;;3.15;;
10637;SDS011;47007;49.252;8.904;2023-05-13T04:29:19;3.45;;;2.88;;
10637;SDS011;47007;49.252;8.904;2023-05-13T04:30:10;3.50;;;3.20;;
10637;SDS011;47007;49.252;8.904;2023-05-13T04:31:15;2.85;;;2.55;;
10637;SDS011;47007;49.252;8.904;2023-05-13T04:32:07;3.17;;;2.97;;
10637;SDS011;47007;49.252;8.904;2023-05-13T04:32:49;3.08;;;2.88;;
10637;SDS011;47007;49.252;8.904;2023-05-13T04:33:39;3.00;;;2.80;;
10637;SDS011;47007;49.252;8.904;2023-05-13T04:34:32;3.63;;;3.15;;
10637;SDS011;47007;49.252;8.904;2023-05-13T04:35:22;3.20;;;3.00;;
10637;SDS011;47007;49.252;8.904;2023-05-13T04:36:14;4.97;;;3.67;;
10637;SDS011;47007;49.252;8.904;2023-05-13T04:37:00;4.43;;;3.67;;
10637;SDS011;47007;49.252;8.904;2023-05-13T04:37:45;4.20;;;3.90;;
10637;SDS011;47007;49.252;8.904;2023-05-13T04:38:31;4.18;;;3.88;;
10637;SDS011;47007;49.252;8.904;2023-05-13T04:39:21;4.07;;;3.67;;
10637;SDS011;47007;49.252;8.904;2023-05-13T04:40:03;3.88;;;3.58;;
10637;SDS011;47007;49.252;8.904;2023-05-13T04:40:56;3.35;;;3.15;;
10637;SDS011;47007;49.252;8.904;2023-05-13T04:42:02;4.10;;;3.58;;
10637;SDS011;47007;49.252;8.904;2023-05-13T04:43:00;4.05;;;3.28;;
10637;SDS011;47007;49.252;8.904;2023-05-13T04:44:18;3.50;;;3.20;;
10637;SDS011;47007;49.252;8.904;2023-05-13T04:45:10;3.50;;;3.20;;
10637;SDS011;47007;49.252;8.904;2023-05-13T04:45:53;3.50;;;3.20;;
10637;SDS011;47007;49.252;8.904;2023-05-13T04:46:42;3.15;;;2.95;;
10637;SDS011;47007;49.252;8.904;2023-05-13T04:47:28;3.40;;;3.15;;
10637;SDS011;47007;49.252;8.904;2023-05-13T04:48:22;3.50;;;3.30;;
10637;SDS011;47007;49.252;8.904;2023-05-13T04:49:11;4.00;;;3.10;;
10637;SDS011;47007;49.252;8.904;2023-05-13T04:50:16;3.88;;;3.58;;
10637;SDS011;47007;49.252;8.904;2023-05-13T04:51:13;5.47;;;4.97;;
10637;SDS011;47007;49.252;8.904;2023-05-13T04:52:06;7.30;;;5.55;;
10637;SDS011;47007;49.252;8.904;2023-05-13T04:53:05;6.90;;;6.20;;
10637;SDS011;47007;49.252;8.904;2023-05-13T04:53:52;8.13;;;7.00;;
10637;SDS011;47007;49.252;8.904;2023-05-13T04:54:43;7.00;;;6.30;;
10637;SDS011;47007;49.252;8.904;2023-05-13T04:55:28;5.57;;;5.07;;
10637;SDS011;47007;49.252;8.904;2023-05-13T04:56:24;6.82;;;5.50;;
10637;SDS011;47007;49.252;8.904;2023-05-13T04:57:15;6.57;;;5.93;;
10637;SDS011;47007;49.252;8.904;2023-05-13T04:58:08;6.82;;;5.47;;
10637;SDS011;47007;49.252;8.904;2023-05-13T04:59:17;6.47;;;5.22;;
10637;SDS011;47007;49.252;8.904;2023-05-13T05:00:00;5.63;;;5.13;;
10637;SDS011;47007;49.252;8.904;2023-05-13T05:00:52;5.15;;;4.65;;
10637;SDS011;47007;49.252;8.904;2023-05-13T05:01:46;8.20;;;4.50;;
10637;SDS011;47007;49.252;8.904;2023-05-13T05:02:36;4.95;;;4.53;;
10637;SDS011;47007;49.252;8.904;2023-05-13T05:03:18;4.20;;;3.75;;
10637;SDS011;47007;49.252;8.904;2023-05-13T05:04:06;3.85;;;3.42;;
10637;SDS011;47007;49.252;8.904;2023-05-13T05:04:55;4.18;;;3.88;;
10637;SDS011;47007;49.252;8.904;2023-05-13T05:05:44;6.95;;;3.75;;
10637;SDS011;47007;49.252;8.904;2023-05-13T05:06:32;3.90;;;3.60;;